createdAt,value
2023-03-26T00:00:16.985Z,1.20
2023-03-26T00:05:18.319Z,1.33
2023-03-26T00:10:19.638Z,1.57
2023-03-26T00:15:20.946Z,1.50
2023-03-26T00:20:22.396Z,1.70
2023-03-26T00:25:23.674Z,1.55
2023-03-26T00:30:25.009Z,1.30
2023-03-26T00:35:26.440Z,1.30
2023-03-26T00:40:27.802Z,1.10
2023-03-26T00:45:29.114Z,1.77
2023-03-26T00:50:30.505Z,1.92
2023-03-26T00:55:31.742Z,2.10
2023-03-26T01:00:34.876Z,1.30
2023-03-26T01:05:42.626Z,1.50
2023-03-26T01:10:50.668Z,1.60
2023-03-26T01:15:53.134Z,2.95
2023-03-26T01:21:05.157Z,2.30
2023-03-26T01:26:18.957Z,2.57
2023-03-26T01:31:29.569Z,3.13
2023-03-26T01:36:37.948Z,3.10
2023-03-26T01:41:46.721Z,3.35
2023-03-26T01:46:49.890Z,2.92
2023-03-26T01:51:51.215Z,2.30
2023-03-26T01:57:04.764Z,2.10
2023-03-26T02:02:35.787Z,1.80
2023-03-26T02:07:41.867Z,1.80
2023-03-26T02:12:43.700Z,3.00
2023-03-26T02:17:45.065Z,2.28
2023-03-26T02:22:47.155Z,1.70
2023-03-26T02:27:50.856Z,1.90
2023-03-26T02:32:53.987Z,1.63
2023-03-26T02:37:55.456Z,1.65
2023-03-26T02:42:56.784Z,1.37
2023-03-26T02:48:00.860Z,1.35
2023-03-26T02:53:02.566Z,1.53
2023-03-26T02:58:03.861Z,1.40
2023-03-26T03:03:07.403Z,1.50
2023-03-26T03:08:09.341Z,1.97
2023-03-26T03:13:10.894Z,1.63
2023-03-26T03:18:12.177Z,2.00
2023-03-26T03:23:13.607Z,1.73
2023-03-26T03:28:18.136Z,1.95
2023-03-26T03:33:20.576Z,1.98
2023-03-26T03:38:21.970Z,1.48
2023-03-26T03:43:23.235Z,1.70
2023-03-26T03:48:24.601Z,2.00
2023-03-26T03:53:26.315Z,1.60
2023-03-26T03:58:28.288Z,1.83
2023-03-26T04:03:33.545Z,1.55
2023-03-26T04:08:36.276Z,1.63
2023-03-26T04:13:37.550Z,1.50
2023-03-26T04:18:39.022Z,2.15
2023-03-26T04:23:40.340Z,1.30
2023-03-26T04:28:53.307Z,1.65
2023-03-26T04:34:00.060Z,1.23
2023-03-26T04:39:04.854Z,1.92
2023-03-26T04:44:06.789Z,1.60
2023-03-26T04:49:08.086Z,1.80
2023-03-26T04:54:12.543Z,1.63
2023-03-26T04:59:16.411Z,1.70
2023-03-26T05:04:17.755Z,1.40
2023-03-26T05:09:19.533Z,2.08
2023-03-26T05:14:20.901Z,1.60
2023-03-26T05:19:22.378Z,1.50
2023-03-26T05:24:24.665Z,1.60
2023-03-26T05:29:26.975Z,1.83
2023-03-26T05:34:28.520Z,1.52
2023-03-26T05:39:29.838Z,1.57
2023-03-26T05:44:31.217Z,1.52
2023-03-26T05:49:32.486Z,1.50
2023-03-26T05:54:33.777Z,1.50
2023-03-26T05:59:35.282Z,1.63
2023-03-26T06:04:40.825Z,1.83
2023-03-26T06:09:42.322Z,2.90
2023-03-26T06:14:43.679Z,2.03
2023-03-26T06:19:44.923Z,3.28
2023-03-26T06:24:46.205Z,1.77
2023-03-26T06:29:47.983Z,1.93
2023-03-26T06:34:49.289Z,2.30
2023-03-26T06:39:50.621Z,2.00
2023-03-26T06:44:52.121Z,2.15
2023-03-26T06:49:53.471Z,1.90
2023-03-26T06:54:54.760Z,1.93
2023-03-26T06:59:56.118Z,2.15
2023-03-26T07:04:57.491Z,1.90
2023-03-26T07:09:58.776Z,3.22
2023-03-26T07:15:01.686Z,2.50
2023-03-26T07:20:03.757Z,1.80
2023-03-26T07:25:05.444Z,2.75
2023-03-26T07:30:21.261Z,2.67
2023-03-26T07:35:22.604Z,1.70
2023-03-26T07:40:46.278Z,1.80
2023-03-26T07:45:47.748Z,2.50
2023-03-26T07:50:49.249Z,2.50
2023-03-26T07:55:57.899Z,2.10
2023-03-26T08:01:03.454Z,2.35
2023-03-26T08:06:10.976Z,2.28
2023-03-26T08:11:35.605Z,2.70
2023-03-26T08:16:40.017Z,2.05
2023-03-26T08:21:45.009Z,1.73
2023-03-26T08:26:57.470Z,2.47
2023-03-26T08:31:59.847Z,2.40
2023-03-26T08:37:01.463Z,2.20
2023-03-26T08:42:21.521Z,2.85
2023-03-26T08:47:35.006Z,2.67
2023-03-26T08:52:55.440Z,1.98
2023-03-26T08:58:05.877Z,1.80
2023-03-26T09:03:22.329Z,1.40
2023-03-26T09:08:30.285Z,1.50
2023-03-26T09:13:53.774Z,2.00
2023-03-26T09:18:55.110Z,1.90
2023-03-26T09:24:35.442Z,1.73
2023-03-26T09:29:44.905Z,1.70
2023-03-26T09:35:01.712Z,1.40
2023-03-26T09:40:04.978Z,1.37
2023-03-26T09:45:25.291Z,1.40
2023-03-26T09:50:29.971Z,1.60
2023-03-26T09:55:49.836Z,1.80
2023-03-26T10:01:08.663Z,1.33
2023-03-26T10:06:28.672Z,1.10
2023-03-26T10:11:36.049Z,1.33
2023-03-26T10:16:56.736Z,1.38
2023-03-26T10:22:18.409Z,1.10
2023-03-26T10:27:25.799Z,0.85
2023-03-26T10:32:27.255Z,1.30
2023-03-26T10:37:34.450Z,0.90
2023-03-26T10:42:36.947Z,1.58
2023-03-26T10:47:47.188Z,0.80
2023-03-26T10:52:58.985Z,1.00
2023-03-26T10:58:26.772Z,0.97
2023-03-26T11:03:31.266Z,0.80
2023-03-26T11:08:51.287Z,0.60
2023-03-26T11:13:52.600Z,0.90
2023-03-26T11:18:53.913Z,0.70
2023-03-26T11:24:05.030Z,0.80
2023-03-26T11:29:32.334Z,0.80
2023-03-26T11:34:35.275Z,0.90
2023-03-26T11:39:45.355Z,0.80
2023-03-26T11:44:49.616Z,0.93
2023-03-26T11:49:53.183Z,0.70
2023-03-26T11:54:58.443Z,0.70
2023-03-26T12:00:21.056Z,0.70
2023-03-26T12:05:26.609Z,0.80
2023-03-26T12:10:28.063Z,1.08
2023-03-26T12:15:31.373Z,0.70
2023-03-26T12:20:34.730Z,0.80
2023-03-26T12:25:37.061Z,0.80
2023-03-26T12:30:39.536Z,0.90
2023-03-26T12:35:40.903Z,1.00
2023-03-26T12:40:43.244Z,0.95
2023-03-26T12:45:44.667Z,0.90
2023-03-26T12:50:51.839Z,0.80
2023-03-26T12:56:17.425Z,0.80
2023-03-26T13:01:33.162Z,1.00
2023-03-26T13:07:00.043Z,0.70
2023-03-26T13:12:09.074Z,0.90
2023-03-26T13:17:19.370Z,0.70
2023-03-26T13:22:30.553Z,0.87
2023-03-26T13:27:49.159Z,0.70
2023-03-26T13:33:12.111Z,1.00
2023-03-26T13:38:13.419Z,0.80
2023-03-26T13:43:31.119Z,1.00
2023-03-26T13:49:01.836Z,1.00
2023-03-26T13:54:06.318Z,0.93
2023-03-26T13:59:12.866Z,1.00
2023-03-26T14:04:17.672Z,0.70
2023-03-26T14:09:22.972Z,1.00
2023-03-26T14:14:48.947Z,0.82
2023-03-26T14:20:12.108Z,1.10
2023-03-26T14:25:19.629Z,0.75
2023-03-26T14:30:39.525Z,1.00
2023-03-26T14:35:46.915Z,0.83
2023-03-26T14:40:56.228Z,0.70
2023-03-26T14:46:13.207Z,0.70
2023-03-26T14:51:23.621Z,0.65
2023-03-26T14:56:37.269Z,0.68
2023-03-26T15:01:49.828Z,0.60
2023-03-26T15:07:10.234Z,0.90
2023-03-26T15:12:12.463Z,0.50
2023-03-26T15:17:34.312Z,1.10
2023-03-26T15:22:50.822Z,0.88
2023-03-26T15:28:08.260Z,0.70
2023-03-26T15:33:22.594Z,0.98
2023-03-26T15:38:29.758Z,0.70
2023-03-26T15:44:22.501Z,0.70
2023-03-26T15:49:26.199Z,0.52
2023-03-26T15:54:33.138Z,0.70
2023-03-26T15:59:42.206Z,0.50
2023-03-26T16:04:57.369Z,0.70
2023-03-26T16:10:13.441Z,0.60
2023-03-26T16:15:15.206Z,0.60
2023-03-26T16:20:31.126Z,0.50
2023-03-26T16:25:33.472Z,0.63
2023-03-26T16:30:34.921Z,0.60
2023-03-26T16:35:55.163Z,0.70
2023-03-26T16:41:00.135Z,0.60
2023-03-26T16:46:05.720Z,0.60
2023-03-26T16:51:11.489Z,0.77
2023-03-26T16:56:17.877Z,0.70
2023-03-26T17:01:28.082Z,0.52
2023-03-26T17:06:29.428Z,0.68
2023-03-26T17:11:38.376Z,0.50
2023-03-26T17:16:47.556Z,0.80
2023-03-26T17:21:51.752Z,0.57
2023-03-26T17:26:59.125Z,0.80
2023-03-26T17:32:00.634Z,0.40
2023-03-26T17:37:04.193Z,0.70
2023-03-26T17:42:18.801Z,0.70
2023-03-26T17:47:23.666Z,0.57
2023-03-26T17:52:38.723Z,0.90
2023-03-26T17:57:42.622Z,0.90
2023-03-26T18:02:51.161Z,1.10
2023-03-26T18:07:52.559Z,1.00
2023-03-26T18:13:07.261Z,1.20
2023-03-26T18:18:11.829Z,0.80
2023-03-26T18:23:45.859Z,1.42
2023-03-26T18:28:52.874Z,1.13
2023-03-26T18:33:56.601Z,0.80
2023-03-26T18:38:58.460Z,0.90
2023-03-26T18:44:04.486Z,0.60
2023-03-26T18:49:06.774Z,0.70
2023-03-26T18:54:09.305Z,1.20
2023-03-26T18:59:35.042Z,0.60
2023-03-26T19:04:37.254Z,0.30
2023-03-26T19:09:39.020Z,0.50
2023-03-26T19:14:59.146Z,0.70
2023-03-26T19:20:00.824Z,1.10
2023-03-26T19:25:02.433Z,1.10
2023-03-26T19:30:03.879Z,0.80
2023-03-26T19:35:19.705Z,0.45
2023-03-26T19:40:29.785Z,0.40
2023-03-26T19:45:33.793Z,0.40
2023-03-26T19:50:36.728Z,0.50
2023-03-26T19:55:39.544Z,0.50
2023-03-26T20:00:40.856Z,0.50
2023-03-26T20:05:42.481Z,0.35
2023-03-26T20:10:43.864Z,0.53
2023-03-26T20:15:46.996Z,0.50
2023-03-26T20:20:48.382Z,0.47
2023-03-26T20:25:52.718Z,0.50
2023-03-26T20:30:54.524Z,0.57
2023-03-26T20:35:56.871Z,0.60
2023-03-26T20:40:58.395Z,0.80
2023-03-26T20:45:59.698Z,0.60
2023-03-26T20:51:01.444Z,0.70
2023-03-26T20:56:03.500Z,0.60
2023-03-26T21:01:05.112Z,0.60
2023-03-26T21:06:10.408Z,0.60
2023-03-26T21:11:26.577Z,0.60
2023-03-26T21:16:28.998Z,0.75
2023-03-26T21:21:46.120Z,0.80
2023-03-26T21:26:59.051Z,0.80
2023-03-26T21:32:00.807Z,0.95
2023-03-26T21:37:02.337Z,0.90
2023-03-26T21:42:04.377Z,0.82
2023-03-26T21:47:10.152Z,0.70
2023-03-26T21:52:15.164Z,1.20
2023-03-26T21:57:43.139Z,0.90
2023-03-26T22:02:54.527Z,1.00
2023-03-26T22:07:57.010Z,1.00
2023-03-26T22:12:58.857Z,1.00
2023-03-26T22:18:01.000Z,1.00
2023-03-26T22:23:03.110Z,1.38
2023-03-26T22:28:04.416Z,1.20
2023-03-26T22:33:08.239Z,1.38
2023-03-26T22:38:09.926Z,1.13
2023-03-26T22:43:11.477Z,1.00
2023-03-26T22:48:13.262Z,1.20
2023-03-26T22:53:14.554Z,1.17
2023-03-26T22:58:16.808Z,1.40
2023-03-26T23:03:19.278Z,1.13
2023-03-26T23:08:20.653Z,1.50
2023-03-26T23:13:22.245Z,1.00
2023-03-26T23:18:24.126Z,1.00
2023-03-26T23:23:29.409Z,1.05
2023-03-26T23:28:32.025Z,1.20
2023-03-26T23:33:35.312Z,1.10
2023-03-26T23:38:43.249Z,0.82
2023-03-26T23:43:53.400Z,0.93
2023-03-26T23:48:59.576Z,0.98
2023-03-26T23:54:01.470Z,0.88
2023-03-26T23:59:03.509Z,1.20
